createdAt,value
2023-05-03T00:00:23.891Z,11.07
2023-05-03T00:02:54.182Z,21.65
2023-05-03T00:05:22.840Z,13.75
2023-05-03T00:07:51.277Z,13.60
2023-05-03T00:10:19.586Z,13.40
2023-05-03T00:12:47.948Z,15.73
2023-05-03T00:15:16.211Z,13.13
2023-05-03T00:17:44.543Z,13.77
2023-05-03T00:20:15.375Z,14.43
2023-05-03T00:22:43.963Z,18.55
2023-05-03T00:25:12.288Z,12.18
2023-05-03T00:27:40.654Z,9.65
2023-05-03T00:30:10.781Z,16.30
2023-05-03T00:32:39.089Z,14.27
2023-05-03T00:35:08.512Z,11.13
2023-05-03T00:37:38.464Z,12.50
2023-05-03T00:40:08.036Z,19.63
2023-05-03T00:42:37.540Z,15.23
2023-05-03T00:45:06.867Z,16.45
2023-05-03T00:47:38.167Z,9.57
2023-05-03T00:50:09.996Z,14.13
2023-05-03T00:52:40.640Z,10.00
2023-05-03T00:55:10.919Z,13.25
2023-05-03T00:57:39.264Z,17.88
2023-05-03T01:00:10.127Z,13.18
2023-05-03T01:02:38.624Z,10.90
2023-05-03T01:05:07.997Z,10.80
2023-05-03T01:07:47.049Z,9.48
2023-05-03T01:10:24.142Z,14.93
2023-05-03T01:12:59.198Z,9.85
2023-05-03T01:15:52.090Z,13.63
2023-05-03T01:18:25.340Z,13.23
2023-05-03T01:20:55.102Z,13.32
2023-05-03T01:23:34.127Z,13.50
2023-05-03T01:26:17.304Z,14.27
2023-05-03T01:28:45.794Z,16.33
2023-05-03T01:31:20.497Z,12.95
2023-05-03T01:33:57.341Z,12.23
2023-05-03T01:36:32.627Z,11.98
2023-05-03T01:39:06.018Z,15.13
2023-05-03T01:41:37.067Z,8.38
2023-05-03T01:44:07.131Z,18.63
2023-05-03T01:46:35.541Z,17.55
2023-05-03T01:49:03.939Z,18.98
2023-05-03T01:51:32.203Z,19.10
2023-05-03T01:54:00.521Z,11.52
2023-05-03T01:56:28.877Z,11.95
2023-05-03T01:58:58.730Z,18.20
2023-05-03T02:01:27.038Z,12.60
2023-05-03T02:03:55.355Z,15.73
2023-05-03T02:06:25.198Z,19.25
2023-05-03T02:08:53.587Z,14.95
2023-05-03T02:11:22.671Z,19.73
2023-05-03T02:13:51.419Z,18.48
2023-05-03T02:16:21.589Z,28.25
2023-05-03T02:18:49.850Z,20.92
2023-05-03T02:21:18.146Z,22.63
2023-05-03T02:23:46.582Z,14.65
2023-05-03T02:26:14.902Z,20.15
2023-05-03T02:28:43.171Z,17.02
2023-05-03T02:31:11.680Z,12.88
2023-05-03T02:33:42.062Z,11.20
2023-05-03T02:36:10.700Z,14.00
2023-05-03T02:38:38.969Z,15.07
2023-05-03T02:41:07.332Z,11.27
2023-05-03T02:43:35.855Z,12.68
2023-05-03T02:46:04.399Z,21.23
2023-05-03T02:48:33.000Z,12.20
2023-05-03T02:51:03.421Z,11.95
2023-05-03T02:53:31.764Z,15.55
2023-05-03T02:56:00.117Z,18.63
2023-05-03T02:58:28.677Z,21.27
2023-05-03T03:00:57.020Z,10.18
2023-05-03T03:03:25.484Z,10.32
2023-05-03T03:05:53.998Z,10.70
2023-05-03T03:08:26.734Z,12.07
2023-05-03T03:10:55.395Z,18.15
2023-05-03T03:13:26.223Z,26.38
2023-05-03T03:15:55.940Z,10.45
2023-05-03T03:18:24.821Z,10.38
2023-05-03T03:21:10.446Z,16.08
2023-05-03T03:23:40.533Z,13.13
2023-05-03T03:26:22.846Z,10.23
2023-05-03T03:28:51.894Z,18.42
2023-05-03T03:31:34.339Z,15.05
2023-05-03T03:34:02.970Z,18.33
2023-05-03T03:36:31.787Z,13.88
2023-05-03T03:39:03.031Z,15.82
2023-05-03T03:41:32.696Z,21.50
2023-05-03T03:44:01.527Z,14.55
2023-05-03T03:46:33.040Z,25.48
2023-05-03T03:49:03.637Z,14.35
2023-05-03T03:51:45.916Z,14.50
2023-05-03T03:54:16.019Z,15.50
2023-05-03T03:56:44.584Z,18.38
2023-05-03T03:59:15.064Z,20.60
2023-05-03T04:01:43.756Z,14.57
2023-05-03T04:04:12.601Z,18.85
2023-05-03T04:06:44.072Z,20.45
2023-05-03T04:09:12.706Z,15.70
2023-05-03T04:11:43.595Z,14.43
2023-05-03T04:16:59.816Z,12.57
2023-05-03T04:19:28.049Z,22.30
2023-05-03T04:21:56.244Z,17.38
2023-05-03T04:24:24.421Z,14.18
2023-05-03T04:26:54.110Z,15.40
2023-05-03T04:29:23.212Z,18.00
2023-05-03T04:31:51.387Z,8.73
2023-05-03T04:34:19.600Z,22.92
2023-05-03T04:36:47.789Z,20.73
2023-05-03T04:39:16.003Z,22.73
2023-05-03T04:41:44.334Z,19.50
2023-05-03T04:44:14.553Z,22.83
2023-05-03T04:46:43.472Z,15.07
2023-05-03T04:49:11.790Z,21.58
2023-05-03T04:51:39.978Z,13.18
2023-05-03T04:54:08.237Z,9.85
2023-05-03T04:56:36.414Z,14.07
2023-05-03T04:59:05.624Z,14.68
2023-05-03T05:01:35.294Z,16.85
2023-05-03T05:04:03.676Z,13.98
2023-05-03T05:06:34.826Z,11.48
2023-05-03T05:09:04.608Z,8.15
2023-05-03T05:11:33.046Z,13.13
2023-05-03T05:14:02.218Z,11.32
2023-05-03T05:16:30.480Z,16.20
2023-05-03T05:19:00.120Z,17.70
2023-05-03T05:21:28.565Z,13.70
2023-05-03T05:23:56.807Z,13.68
2023-05-03T05:26:25.032Z,17.35
2023-05-03T05:28:53.244Z,16.73
2023-05-03T05:31:21.933Z,21.40
2023-05-03T05:33:50.163Z,18.92
2023-05-03T05:36:20.684Z,10.57
2023-05-03T05:38:48.948Z,19.27
2023-05-03T05:41:17.184Z,7.78
2023-05-03T05:43:45.997Z,13.35
2023-05-03T05:46:14.186Z,13.45
2023-05-03T05:48:43.413Z,18.40
2023-05-03T05:51:12.015Z,22.33
2023-05-03T05:53:41.589Z,16.10
2023-05-03T05:56:11.378Z,8.23
2023-05-03T05:58:39.609Z,10.48
2023-05-03T06:01:08.534Z,10.35
2023-05-03T06:03:36.785Z,9.50
2023-05-03T06:06:05.239Z,9.15
2023-05-03T06:08:33.714Z,12.90
2023-05-03T06:11:03.419Z,8.38
2023-05-03T06:13:33.254Z,9.50
2023-05-03T06:16:01.491Z,11.57
2023-05-03T06:18:29.702Z,15.13
2023-05-03T06:20:57.961Z,8.73
2023-05-03T06:23:27.910Z,13.88
2023-05-03T06:25:56.139Z,22.10
2023-05-03T06:28:25.774Z,10.70
2023-05-03T06:30:54.283Z,7.30
2023-05-03T06:33:22.630Z,6.53
2023-05-03T06:35:50.908Z,7.33
2023-05-03T06:38:19.491Z,8.00
2023-05-03T06:40:47.913Z,9.50
2023-05-03T06:43:16.181Z,3.87
2023-05-03T06:45:46.063Z,7.03
2023-05-03T06:48:14.393Z,6.43
2023-05-03T06:50:42.657Z,7.63
2023-05-03T06:53:10.910Z,5.43
2023-05-03T06:55:39.151Z,9.23
2023-05-03T06:58:10.148Z,3.40
2023-05-03T07:00:39.240Z,7.33
2023-05-03T07:03:08.928Z,11.07
2023-05-03T07:05:37.333Z,6.83
2023-05-03T07:08:05.906Z,6.00
2023-05-03T07:10:34.599Z,12.70
2023-05-03T07:13:02.854Z,4.57
2023-05-03T07:15:32.669Z,7.40
2023-05-03T07:18:00.984Z,6.70
2023-05-03T07:20:30.865Z,5.40
2023-05-03T07:22:59.446Z,6.00
2023-05-03T07:25:27.741Z,12.67
2023-05-03T07:27:56.046Z,14.07
2023-05-03T07:30:24.661Z,4.43
2023-05-03T07:32:53.141Z,5.43
2023-05-03T07:35:23.187Z,8.70
2023-05-03T07:37:52.791Z,3.00
2023-05-03T07:40:20.984Z,8.33
2023-05-03T07:42:49.414Z,5.80
2023-05-03T07:45:19.173Z,5.33
2023-05-03T07:47:47.569Z,5.70
2023-05-03T07:50:15.945Z,6.40
2023-05-03T07:52:44.204Z,7.27
2023-05-03T07:55:13.845Z,7.43
2023-05-03T07:57:42.322Z,12.00
2023-05-03T08:00:12.760Z,4.90
2023-05-03T08:02:41.344Z,5.60
2023-05-03T08:05:13.911Z,6.43
2023-05-03T08:07:42.372Z,4.57
2023-05-03T08:10:11.458Z,6.13
2023-05-03T08:12:41.095Z,7.80
2023-05-03T08:15:12.892Z,8.63
2023-05-03T08:17:42.441Z,7.13
2023-05-03T08:20:11.866Z,14.73
2023-05-03T08:22:41.355Z,10.33
2023-05-03T08:25:10.462Z,6.90
2023-05-03T08:27:40.223Z,4.37
2023-05-03T08:30:09.625Z,8.10
2023-05-03T08:32:37.907Z,5.40
2023-05-03T08:35:07.561Z,9.40
2023-05-03T08:37:43.343Z,5.00
2023-05-03T08:40:13.598Z,4.25
2023-05-03T08:42:44.311Z,8.10
2023-05-03T08:45:15.802Z,7.10
2023-05-03T08:47:45.116Z,8.93
2023-05-03T08:50:14.851Z,6.63
2023-05-03T08:52:44.326Z,4.30
2023-05-03T08:55:12.927Z,11.37
2023-05-03T08:57:41.529Z,7.50
2023-05-03T09:00:12.968Z,5.63
2023-05-03T09:02:42.015Z,6.07
2023-05-03T09:05:33.202Z,7.43
2023-05-03T09:08:05.605Z,8.20
2023-05-03T09:10:34.727Z,7.80
2023-05-03T09:13:03.879Z,5.50
2023-05-03T09:15:33.947Z,9.93
2023-05-03T09:18:17.330Z,8.60
2023-05-03T09:20:51.933Z,11.20
2023-05-03T09:23:31.301Z,5.63
2023-05-03T09:26:53.151Z,8.27
2023-05-03T09:29:31.941Z,17.33
2023-05-03T09:32:04.726Z,8.17
2023-05-03T09:34:33.479Z,9.73
2023-05-03T09:37:01.690Z,6.37
2023-05-03T09:39:29.967Z,6.97
2023-05-03T09:41:58.908Z,7.30
2023-05-03T09:44:43.078Z,8.10
2023-05-03T09:47:13.435Z,7.47
2023-05-03T09:49:41.652Z,11.20
2023-05-03T09:52:11.163Z,8.17
2023-05-03T09:54:40.880Z,4.50
2023-05-03T09:57:10.132Z,4.17
2023-05-03T09:59:39.906Z,5.07
2023-05-03T10:02:09.198Z,6.80
2023-05-03T10:04:44.779Z,7.67
2023-05-03T10:07:15.902Z,5.33
2023-05-03T10:09:46.088Z,4.10
2023-05-03T10:12:17.460Z,13.30
2023-05-03T10:14:48.063Z,11.27
2023-05-03T10:17:32.046Z,3.90
2023-05-03T10:20:20.448Z,3.00
2023-05-03T10:23:14.235Z,3.40
2023-05-03T10:26:17.376Z,6.07
2023-05-03T10:28:46.162Z,10.10
2023-05-03T10:31:46.486Z,5.43
2023-05-03T10:34:25.404Z,4.20
2023-05-03T10:37:04.092Z,4.03
2023-05-03T10:39:32.633Z,4.23
2023-05-03T10:42:03.418Z,5.93
2023-05-03T10:44:40.113Z,11.00
2023-05-03T10:47:13.847Z,10.50
2023-05-03T10:49:42.120Z,9.30
2023-05-03T10:52:43.343Z,4.73
2023-05-03T10:55:16.836Z,4.03
2023-05-03T10:57:46.825Z,4.83
2023-05-03T11:00:18.698Z,8.43
2023-05-03T11:03:19.395Z,5.33
2023-05-03T11:05:49.651Z,4.50
2023-05-03T11:08:20.452Z,5.30
2023-05-03T11:10:57.982Z,8.87
2023-05-03T11:13:26.464Z,5.10
2023-05-03T11:15:55.995Z,3.87
2023-05-03T11:18:28.545Z,5.50
2023-05-03T11:20:57.050Z,4.50
2023-05-03T11:23:28.123Z,5.40
2023-05-03T11:25:58.539Z,8.57
2023-05-03T11:28:27.156Z,8.37
2023-05-03T11:30:55.462Z,4.93
2023-05-03T11:33:23.716Z,6.57
2023-05-03T11:35:56.076Z,10.70
2023-05-03T11:38:24.339Z,6.67
2023-05-03T11:40:52.538Z,11.73
2023-05-03T11:43:22.165Z,5.23
2023-05-03T11:45:53.300Z,4.20
2023-05-03T11:48:21.764Z,6.87
2023-05-03T11:50:54.235Z,5.63
2023-05-03T11:53:24.243Z,2.80
2023-05-03T11:55:54.676Z,12.33
2023-05-03T11:58:26.700Z,7.30
2023-05-03T12:00:56.459Z,5.23
2023-05-03T12:03:30.797Z,5.93
2023-05-03T12:06:02.204Z,5.27
2023-05-03T12:08:36.618Z,6.37
2023-05-03T12:11:09.503Z,6.87
2023-05-03T12:13:44.270Z,7.50
2023-05-03T12:16:15.639Z,7.70
2023-05-03T12:18:52.070Z,3.80
2023-05-03T12:23:55.868Z,7.90
2023-05-03T12:26:27.810Z,4.13
2023-05-03T12:28:57.593Z,8.47
2023-05-03T12:31:29.099Z,9.73
2023-05-03T12:36:31.414Z,4.03
2023-05-03T12:39:01.941Z,7.43
2023-05-03T12:44:04.469Z,4.00
2023-05-03T12:46:35.129Z,4.77
2023-05-03T12:49:06.724Z,9.60
2023-05-03T12:51:35.700Z,4.60
2023-05-03T12:54:10.454Z,4.17
2023-05-03T12:56:40.704Z,3.43
2023-05-03T12:59:31.769Z,3.03
2023-05-03T13:07:08.273Z,4.47
2023-05-03T13:12:18.140Z,4.70
2023-05-03T13:14:48.022Z,12.20
2023-05-03T13:17:16.653Z,4.77
2023-05-03T13:19:48.540Z,4.83
2023-05-03T13:22:17.426Z,5.60
2023-05-03T13:24:53.514Z,4.90
2023-05-03T13:27:24.355Z,7.70
2023-05-03T13:29:54.111Z,7.30
2023-05-03T13:32:22.463Z,5.80
2023-05-03T13:34:50.767Z,5.10
2023-05-03T13:37:19.811Z,5.60
2023-05-03T13:39:48.512Z,3.43
2023-05-03T13:42:16.904Z,8.93
2023-05-03T13:44:47.130Z,4.50
2023-05-03T13:47:16.878Z,7.07
2023-05-03T13:49:45.168Z,6.30
2023-05-03T13:52:13.464Z,3.50
2023-05-03T13:54:42.538Z,8.10
2023-05-03T13:57:10.855Z,7.20
2023-05-03T13:59:39.272Z,8.30
2023-05-03T14:02:07.745Z,10.23
2023-05-03T14:04:37.783Z,8.00
2023-05-03T14:07:06.124Z,7.63
2023-05-03T14:09:39.422Z,5.73
2023-05-03T14:12:09.311Z,8.50
2023-05-03T14:14:37.807Z,11.60
2023-05-03T14:17:08.937Z,5.63
2023-05-03T14:19:39.259Z,8.70
2023-05-03T14:22:08.280Z,5.33
2023-05-03T14:24:36.681Z,7.07
2023-05-03T14:27:05.127Z,5.00
2023-05-03T14:29:33.382Z,2.87
2023-05-03T14:32:01.616Z,2.90
2023-05-03T14:34:30.101Z,5.70
2023-05-03T14:37:00.130Z,13.53
2023-05-03T14:39:31.406Z,9.77
2023-05-03T14:41:59.639Z,10.93
2023-05-03T14:44:27.944Z,8.00
2023-05-03T14:46:58.845Z,9.53
2023-05-03T14:49:27.197Z,9.37
2023-05-03T14:51:55.575Z,5.97
2023-05-03T14:54:25.268Z,8.67
2023-05-03T14:56:53.599Z,7.97
2023-05-03T14:59:21.989Z,10.97
2023-05-03T15:01:53.498Z,7.97
2023-05-03T15:04:23.641Z,4.17
2023-05-03T15:06:52.088Z,6.00
2023-05-03T15:09:20.622Z,6.60
2023-05-03T15:11:50.334Z,7.73
2023-05-03T15:14:19.440Z,9.50
2023-05-03T15:16:47.834Z,4.27
2023-05-03T15:19:16.258Z,6.20
2023-05-03T15:21:48.813Z,7.17
2023-05-03T15:24:17.541Z,14.97
2023-05-03T15:26:46.880Z,24.20
2023-05-03T15:29:16.900Z,8.97
2023-05-03T15:31:45.152Z,9.60
2023-05-03T15:34:19.211Z,6.40
2023-05-03T15:36:47.455Z,9.97
2023-05-03T15:39:15.747Z,6.73
2023-05-03T15:41:45.578Z,4.50
2023-05-03T15:44:14.997Z,3.80
2023-05-03T15:46:45.426Z,6.30
2023-05-03T15:49:13.823Z,4.87
2023-05-03T15:51:42.132Z,7.33
2023-05-03T15:54:10.356Z,5.17
2023-05-03T15:56:39.135Z,6.77
2023-05-03T15:59:08.266Z,10.20
2023-05-03T16:01:37.282Z,4.43
2023-05-03T16:04:07.704Z,5.60
2023-05-03T16:06:35.913Z,13.37
2023-05-03T16:09:06.491Z,12.77
2023-05-03T16:11:35.825Z,11.20
2023-05-03T16:14:04.921Z,6.83
2023-05-03T16:16:33.337Z,7.87
2023-05-03T16:19:02.265Z,16.30
2023-05-03T16:21:32.579Z,5.87
2023-05-03T16:24:01.114Z,7.00
2023-05-03T16:26:29.364Z,9.87
2023-05-03T16:28:57.989Z,4.60
2023-05-03T16:31:26.538Z,4.90
2023-05-03T16:33:54.791Z,10.37
2023-05-03T16:36:23.084Z,10.30
2023-05-03T16:38:52.839Z,9.33
2023-05-03T16:41:21.072Z,10.07
2023-05-03T16:43:49.347Z,5.80
2023-05-03T16:46:17.661Z,10.33
2023-05-03T16:48:45.963Z,6.83
2023-05-03T16:51:16.940Z,6.47
2023-05-03T16:53:45.177Z,5.80
2023-05-03T16:56:15.667Z,7.80
2023-05-03T16:58:43.981Z,7.00
2023-05-03T17:01:12.318Z,9.73
2023-05-03T17:03:41.137Z,7.00
2023-05-03T17:06:09.732Z,10.97
2023-05-03T17:08:41.265Z,4.67
2023-05-03T17:11:11.164Z,7.00
2023-05-03T17:13:41.592Z,6.13
2023-05-03T17:16:11.287Z,6.63
2023-05-03T17:18:43.440Z,14.87
2023-05-03T17:21:12.178Z,6.20
2023-05-03T17:23:40.728Z,5.18
2023-05-03T17:26:10.218Z,10.02
2023-05-03T17:28:40.355Z,11.65
2023-05-03T17:31:14.709Z,9.07
2023-05-03T17:33:42.978Z,7.97
2023-05-03T17:36:11.640Z,7.05
2023-05-03T17:38:39.883Z,9.27
2023-05-03T17:41:08.786Z,11.75
2023-05-03T17:43:37.512Z,11.40
2023-05-03T17:46:12.137Z,11.85
2023-05-03T17:48:44.580Z,6.38
2023-05-03T17:51:13.533Z,6.07
2023-05-03T17:53:42.383Z,8.52
2023-05-03T17:56:21.734Z,14.48
2023-05-03T17:58:50.036Z,8.48
2023-05-03T18:01:19.967Z,4.43
2023-05-03T18:03:48.321Z,6.45
2023-05-03T18:06:20.382Z,6.88
2023-05-03T18:08:51.969Z,10.18
2023-05-03T18:11:20.231Z,9.48
2023-05-03T18:13:48.476Z,13.27
2023-05-03T18:16:17.198Z,17.02
2023-05-03T18:18:47.028Z,22.73
2023-05-03T18:21:15.285Z,22.77
2023-05-03T18:23:44.453Z,32.13
2023-05-03T18:26:15.958Z,22.50
2023-05-03T18:28:51.707Z,14.95
2023-05-03T18:31:27.379Z,12.43
2023-05-03T18:33:57.186Z,16.20
2023-05-03T18:36:32.112Z,18.50
2023-05-03T18:39:00.522Z,16.42
2023-05-03T18:41:32.080Z,19.75
2023-05-03T18:44:02.959Z,17.00
2023-05-03T18:46:31.738Z,14.15
2023-05-03T18:49:04.091Z,9.13
2023-05-03T18:51:32.692Z,10.85
2023-05-03T18:54:01.434Z,8.57
2023-05-03T18:56:31.349Z,27.65
2023-05-03T18:58:59.694Z,42.20
2023-05-03T19:01:28.189Z,30.15
2023-05-03T19:03:59.343Z,17.73
2023-05-03T19:06:29.230Z,27.20
2023-05-03T19:08:57.734Z,20.73
2023-05-03T19:11:28.660Z,16.27
2023-05-03T19:13:56.994Z,18.63
2023-05-03T19:16:25.265Z,16.77
2023-05-03T19:18:55.495Z,21.20
2023-05-03T19:21:23.862Z,16.05
2023-05-03T19:23:53.563Z,24.27
2023-05-03T19:26:21.970Z,13.35
2023-05-03T19:28:53.416Z,14.48
2023-05-03T19:31:27.408Z,12.10
2023-05-03T19:33:59.083Z,19.23
2023-05-03T19:36:27.632Z,15.18
2023-05-03T19:38:57.300Z,14.68
2023-05-03T19:41:25.629Z,13.77
2023-05-03T19:43:55.861Z,16.42
2023-05-03T19:46:28.681Z,16.40
2023-05-03T19:49:03.152Z,25.80
2023-05-03T19:51:32.906Z,27.45
2023-05-03T19:54:04.121Z,24.60
2023-05-03T19:56:32.475Z,23.50
2023-05-03T19:59:00.792Z,40.15
2023-05-03T20:01:29.261Z,20.23
2023-05-03T20:03:57.668Z,18.65
2023-05-03T20:06:26.125Z,21.77
2023-05-03T20:08:54.435Z,22.55
2023-05-03T20:11:24.330Z,46.90
2023-05-03T20:13:52.667Z,28.55
2023-05-03T20:16:21.757Z,33.13
2023-05-03T20:18:50.575Z,29.77
2023-05-03T20:21:19.104Z,46.67
2023-05-03T20:23:48.712Z,38.25
2023-05-03T20:26:19.098Z,20.58
2023-05-03T20:28:48.874Z,19.40
2023-05-03T20:31:17.260Z,15.57
2023-05-03T20:33:45.718Z,16.63
2023-05-03T20:36:14.745Z,15.15
2023-05-03T20:38:43.155Z,17.88
2023-05-03T20:41:11.464Z,23.10
2023-05-03T20:43:39.817Z,15.30
2023-05-03T20:46:09.766Z,20.20
2023-05-03T20:48:38.341Z,14.98
2023-05-03T20:51:09.415Z,17.67
2023-05-03T20:53:38.029Z,25.42
2023-05-03T20:56:08.037Z,15.77
2023-05-03T20:58:36.700Z,14.73
2023-05-03T21:01:06.679Z,14.50
2023-05-03T21:03:36.796Z,14.50
2023-05-03T21:06:06.839Z,15.68
2023-05-03T21:08:38.897Z,15.73
2023-05-03T21:11:08.450Z,18.80
2023-05-03T21:13:37.102Z,20.85
2023-05-03T21:16:08.102Z,11.82
2023-05-03T21:18:38.156Z,12.15
2023-05-03T21:21:06.757Z,18.02
2023-05-03T21:23:35.349Z,14.88
2023-05-03T21:26:04.160Z,11.10
2023-05-03T21:28:32.817Z,10.80
2023-05-03T21:31:03.365Z,13.55
2023-05-03T21:33:31.905Z,14.18
2023-05-03T21:36:01.968Z,17.92
2023-05-03T21:38:30.451Z,15.32
2023-05-03T21:41:04.880Z,20.30
2023-05-03T21:43:38.372Z,20.42
2023-05-03T21:46:08.768Z,18.92
2023-05-03T21:48:38.017Z,15.80
2023-05-03T21:51:08.652Z,17.42
2023-05-03T21:53:37.253Z,17.02
2023-05-03T21:56:06.473Z,12.32
2023-05-03T21:58:35.314Z,11.85
2023-05-03T22:01:04.830Z,12.98
2023-05-03T22:03:33.640Z,17.95
2023-05-03T22:06:02.635Z,16.88
2023-05-03T22:08:33.360Z,12.10
2023-05-03T22:11:04.458Z,16.80
2023-05-03T22:13:33.378Z,15.40
2023-05-03T22:16:06.094Z,13.20
2023-05-03T22:18:35.526Z,12.73
2023-05-03T22:21:04.848Z,13.43
2023-05-03T22:23:35.161Z,12.35
2023-05-03T22:26:04.015Z,14.00
2023-05-03T22:28:33.886Z,16.83
2023-05-03T22:31:02.981Z,16.02
2023-05-03T22:33:36.457Z,14.43
2023-05-03T22:36:09.062Z,14.88
2023-05-03T22:38:42.052Z,10.73
2023-05-03T22:41:11.750Z,10.88
2023-05-03T22:43:40.555Z,8.98
2023-05-03T22:46:09.159Z,18.73
2023-05-03T22:48:37.893Z,13.93
2023-05-03T22:51:06.929Z,19.00
2023-05-03T22:53:35.346Z,8.30
2023-05-03T22:56:05.755Z,19.48
2023-05-03T22:58:34.622Z,11.02
2023-05-03T23:01:03.288Z,8.52
2023-05-03T23:03:31.911Z,18.38
2023-05-03T23:06:00.568Z,10.38
2023-05-03T23:08:31.599Z,13.88
2023-05-03T23:11:00.700Z,11.38
2023-05-03T23:13:30.745Z,21.13
2023-05-03T23:15:59.316Z,8.38
2023-05-03T23:18:27.905Z,12.38
2023-05-03T23:20:56.356Z,16.23
2023-05-03T23:23:25.045Z,9.77
2023-05-03T23:25:54.071Z,9.85
2023-05-03T23:28:22.894Z,14.98
2023-05-03T23:30:52.986Z,10.80
2023-05-03T23:33:21.976Z,11.93
2023-05-03T23:35:51.393Z,11.98
2023-05-03T23:38:19.877Z,13.55
2023-05-03T23:40:48.299Z,8.75
2023-05-03T23:43:16.709Z,9.77
2023-05-03T23:45:45.092Z,11.18
2023-05-03T23:48:15.084Z,12.23
2023-05-03T23:50:43.629Z,14.43
2023-05-03T23:53:12.157Z,17.10
2023-05-03T23:55:40.568Z,12.23
2023-05-03T23:58:09.173Z,15.88
